createdAt,value
2023-02-06T00:01:49.383Z,101016.29
2023-02-06T00:04:17.789Z,101017.89
2023-02-06T00:06:47.208Z,101015.70
2023-02-06T00:09:15.839Z,101019.08
2023-02-06T00:11:45.214Z,101021.86
2023-02-06T00:14:13.847Z,101021.17
2023-02-06T00:17:02.104Z,101019.83
2023-02-06T00:19:31.857Z,101022.11
2023-02-06T00:22:01.006Z,101020.42
2023-02-06T00:24:29.441Z,101019.77
2023-02-06T00:26:57.717Z,101018.98
2023-02-06T00:29:26.149Z,101021.65
2023-02-06T00:31:54.711Z,101021.18
2023-02-06T00:34:23.068Z,101023.40
2023-02-06T00:36:52.194Z,101027.02
2023-02-06T00:39:20.691Z,101034.45
2023-02-06T00:41:50.416Z,101034.61
2023-02-06T00:44:19.361Z,101038.05
2023-02-06T00:46:47.691Z,101033.08
2023-02-06T00:49:16.131Z,101033.23
2023-02-06T00:51:44.632Z,101030.15
2023-02-06T00:54:12.934Z,101022.04
2023-02-06T00:56:43.806Z,101016.92
2023-02-06T00:59:12.208Z,101018.70
2023-02-06T01:01:41.340Z,101016.43
2023-02-06T01:04:09.636Z,101014.41
2023-02-06T01:06:59.338Z,101015.63
2023-02-06T01:09:27.769Z,101017.39
2023-02-06T01:11:58.145Z,101016.59
2023-02-06T01:14:27.575Z,101015.64
2023-02-06T01:16:56.006Z,101011.70
2023-02-06T01:19:25.180Z,101016.39
2023-02-06T01:21:53.953Z,101015.73
2023-02-06T01:24:22.685Z,101016.27
2023-02-06T01:26:50.974Z,101016.17
2023-02-06T01:29:20.240Z,101020.02
2023-02-06T01:31:48.702Z,101019.84
2023-02-06T01:34:18.870Z,101019.66
2023-02-06T01:36:47.694Z,101014.24
2023-02-06T01:39:16.046Z,101017.20
2023-02-06T01:41:44.370Z,101017.72
2023-02-06T01:44:23.770Z,101015.77
2023-02-06T01:46:54.475Z,101017.23
2023-02-06T01:49:31.299Z,101018.73
2023-02-06T01:52:13.407Z,101016.80
2023-02-06T01:54:43.884Z,101025.36
2023-02-06T01:57:12.495Z,101030.02
2023-02-06T01:59:41.622Z,101027.61
2023-02-06T02:02:10.079Z,101027.41
2023-02-06T02:04:38.457Z,101027.92
2023-02-06T02:07:22.821Z,101027.69
2023-02-06T02:09:51.279Z,101032.69
2023-02-06T02:12:19.909Z,101034.73
2023-02-06T02:14:48.789Z,101035.54
2023-02-06T02:17:56.538Z,101039.19
2023-02-06T02:20:54.340Z,101037.77
2023-02-06T02:23:46.139Z,101041.95
2023-02-06T02:26:14.442Z,101039.02
2023-02-06T02:28:52.118Z,101043.16
2023-02-06T02:31:52.401Z,101039.83
2023-02-06T02:34:43.668Z,101038.80
2023-02-06T02:37:38.057Z,101043.16
2023-02-06T02:40:09.615Z,101052.05
2023-02-06T02:42:47.211Z,101056.11
2023-02-06T02:45:26.063Z,101055.83
2023-02-06T02:48:03.862Z,101055.68
2023-02-06T02:50:35.059Z,101057.44
2023-02-06T02:53:03.853Z,101057.57
2023-02-06T02:55:33.871Z,101059.21
2023-02-06T02:58:08.781Z,101060.63
2023-02-06T03:00:40.370Z,101060.45
2023-02-06T03:03:11.195Z,101067.11
2023-02-06T03:05:59.031Z,101061.54
2023-02-06T03:08:53.140Z,101066.02
2023-02-06T03:11:24.260Z,101065.16
2023-02-06T03:14:03.241Z,101065.83
2023-02-06T03:16:46.295Z,101068.34
2023-02-06T03:19:25.601Z,101072.27
2023-02-06T03:21:54.044Z,101073.19
2023-02-06T03:24:27.154Z,101073.75
2023-02-06T03:26:59.169Z,101075.85
2023-02-06T03:29:31.886Z,101076.75
2023-02-06T03:32:12.674Z,101077.27
2023-02-06T03:35:03.930Z,101073.69
2023-02-06T03:37:32.733Z,101080.44
2023-02-06T03:40:20.883Z,101081.61
2023-02-06T03:42:52.152Z,101085.42
2023-02-06T03:45:23.340Z,101082.73
2023-02-06T03:47:52.115Z,101085.80
2023-02-06T03:50:21.365Z,101083.42
2023-02-06T03:52:50.006Z,101082.81
2023-02-06T03:55:22.562Z,101088.23
2023-02-06T03:57:56.906Z,101089.62
2023-02-06T04:00:25.620Z,101087.23
2023-02-06T04:02:54.129Z,101086.82
2023-02-06T04:05:22.536Z,101093.10
2023-02-06T04:07:52.862Z,101094.98
2023-02-06T04:10:22.022Z,101095.23
2023-02-06T04:12:50.524Z,101097.86
2023-02-06T04:15:19.362Z,101100.48
2023-02-06T04:17:59.547Z,101102.84
2023-02-06T04:20:29.686Z,101102.47
2023-02-06T04:22:59.177Z,101106.52
2023-02-06T04:25:27.607Z,101110.05
2023-02-06T04:27:56.483Z,101107.73
2023-02-06T04:30:24.974Z,101112.38
2023-02-06T04:32:53.454Z,101113.77
2023-02-06T04:35:21.900Z,101112.27
2023-02-06T04:37:50.237Z,101114.21
2023-02-06T04:40:18.756Z,101121.81
2023-02-06T04:42:47.684Z,101119.45
2023-02-06T04:45:16.122Z,101119.04
2023-02-06T04:47:45.237Z,101117.41
2023-02-06T04:50:13.877Z,101122.20
2023-02-06T04:52:42.615Z,101123.20
2023-02-06T04:55:10.972Z,101122.64
2023-02-06T04:57:40.871Z,101119.56
2023-02-06T05:00:10.532Z,101121.40
2023-02-06T05:02:40.050Z,101123.16
2023-02-06T05:05:09.002Z,101122.58
2023-02-06T05:07:38.734Z,101126.73
2023-02-06T05:10:09.142Z,101126.63
2023-02-06T05:12:38.450Z,101125.05
2023-02-06T05:15:07.834Z,101127.38
2023-02-06T05:17:37.201Z,101127.22
2023-02-06T05:20:06.882Z,101127.80
2023-02-06T05:22:35.341Z,101125.02
2023-02-06T05:25:03.906Z,101126.58
2023-02-06T05:27:32.541Z,101124.40
2023-02-06T05:30:01.416Z,101130.03
2023-02-06T05:32:29.849Z,101133.41
2023-02-06T05:34:58.298Z,101133.64
2023-02-06T05:37:26.604Z,101134.98
2023-02-06T05:39:55.051Z,101132.87
2023-02-06T05:42:23.568Z,101132.39
2023-02-06T05:44:52.036Z,101135.42
2023-02-06T05:47:20.281Z,101131.87
2023-02-06T05:49:48.613Z,101130.15
2023-02-06T05:52:17.170Z,101134.24
2023-02-06T05:54:45.806Z,101135.21
2023-02-06T05:57:14.268Z,101134.67
2023-02-06T05:59:42.724Z,101134.23
2023-02-06T06:04:50.571Z,101142.08
2023-02-06T06:07:19.138Z,101144.43
2023-02-06T06:09:48.107Z,101143.90
2023-02-06T06:12:20.045Z,101144.02
2023-02-06T06:14:48.275Z,101146.25
2023-02-06T06:17:16.832Z,101144.83
2023-02-06T06:19:45.192Z,101139.85
2023-02-06T06:22:13.557Z,101138.38
2023-02-06T06:24:41.848Z,101135.70
2023-02-06T06:27:10.996Z,101137.50
2023-02-06T06:29:39.814Z,101139.36
2023-02-06T06:32:08.346Z,101141.30
2023-02-06T06:34:37.008Z,101140.53
2023-02-06T06:37:06.233Z,101144.92
2023-02-06T06:39:34.973Z,101149.81
2023-02-06T06:42:04.658Z,101149.35
2023-02-06T06:44:33.425Z,101150.28
2023-02-06T06:47:01.781Z,101151.75
2023-02-06T06:49:30.191Z,101152.86
2023-02-06T06:51:58.541Z,101154.49
2023-02-06T06:54:27.487Z,101150.85
2023-02-06T06:56:55.936Z,101155.88
2023-02-06T06:59:24.483Z,101157.48
2023-02-06T07:01:52.853Z,101162.57
2023-02-06T07:04:21.346Z,101162.89
2023-02-06T07:06:51.823Z,101163.89
2023-02-06T07:09:20.590Z,101165.13
2023-02-06T07:11:48.971Z,101165.00
2023-02-06T07:14:18.021Z,101161.30
2023-02-06T07:16:46.332Z,101164.48
2023-02-06T07:19:14.984Z,101165.41
2023-02-06T07:21:43.571Z,101169.33
2023-02-06T07:24:12.313Z,101169.66
2023-02-06T07:26:41.766Z,101173.75
2023-02-06T07:29:10.260Z,101175.47
2023-02-06T07:31:38.965Z,101178.48
2023-02-06T07:34:07.780Z,101180.64
2023-02-06T07:36:36.088Z,101178.29
2023-02-06T07:39:04.675Z,101177.30
2023-02-06T07:41:33.131Z,101180.70
2023-02-06T07:44:01.493Z,101184.13
2023-02-06T07:46:30.199Z,101185.13
2023-02-06T07:48:58.504Z,101183.64
2023-02-06T09:53:41.846Z,101216.98
2023-02-06T09:56:28.269Z,101209.06
2023-02-06T09:59:21.900Z,101205.64
2023-02-06T10:02:05.649Z,101204.15
2023-02-06T10:04:40.815Z,101199.52
2023-02-06T10:07:35.782Z,101203.86
2023-02-06T10:10:15.723Z,101205.90
2023-02-06T10:12:59.155Z,101203.36
2023-02-06T10:15:46.740Z,101201.25
2023-02-06T10:18:34.010Z,101202.41
2023-02-06T10:21:07.571Z,101200.94
2023-02-06T10:23:39.041Z,101201.20
2023-02-06T10:26:18.681Z,101196.65
2023-02-06T10:28:49.423Z,101193.35
2023-02-06T10:31:24.423Z,101194.45
2023-02-06T10:33:52.846Z,101198.31
2023-02-06T10:36:59.142Z,101197.12
2023-02-06T10:39:46.064Z,101188.84
2023-02-06T10:42:37.374Z,101184.83
2023-02-06T10:45:28.027Z,101190.16
2023-02-06T10:48:04.653Z,101200.85
2023-02-06T10:50:37.578Z,101198.34
2023-02-06T10:53:26.074Z,101196.70
2023-02-06T10:56:03.840Z,101196.02
2023-02-06T10:58:43.243Z,101192.12
2023-02-06T11:01:25.034Z,101185.90
2023-02-06T11:04:00.541Z,101184.33
2023-02-06T11:06:28.941Z,101182.31
2023-02-06T11:08:58.367Z,101182.88
2023-02-06T11:11:32.078Z,101184.23
2023-02-06T11:14:08.314Z,101180.57
2023-02-06T11:16:37.730Z,101176.52
2023-02-06T11:19:31.641Z,101169.27
2023-02-06T11:22:16.614Z,101165.45
2023-02-06T11:25:03.991Z,101165.64
2023-02-06T11:27:33.763Z,101166.42
2023-02-06T11:30:35.341Z,101168.83
2023-02-06T11:33:11.744Z,101169.12
2023-02-06T11:35:47.945Z,101165.80
2023-02-06T11:38:22.684Z,101169.46
2023-02-06T11:41:02.448Z,101164.02
2023-02-06T11:43:43.478Z,101159.75
2023-02-06T11:46:20.537Z,101156.34
2023-02-06T11:48:56.085Z,101156.63
2023-02-06T11:51:25.091Z,101157.52
2023-02-06T11:54:03.555Z,101154.80
2023-02-06T11:56:32.270Z,101153.04
2023-02-06T11:59:07.566Z,101152.87
2023-02-06T12:01:47.067Z,101152.56
2023-02-06T12:04:40.874Z,101157.70
2023-02-06T12:07:30.798Z,101153.69
2023-02-06T12:09:59.447Z,101156.44
2023-02-06T12:12:37.558Z,101152.01
2023-02-06T12:15:33.136Z,101164.61
2023-02-06T12:18:00.103Z,101153.48
2023-02-06T12:20:31.837Z,101150.20
2023-02-06T12:23:11.797Z,101153.46
2023-02-06T12:25:43.391Z,101148.09
2023-02-06T12:28:16.542Z,101152.05
2023-02-06T12:30:51.603Z,101152.80
2023-02-06T12:33:23.670Z,101155.95
2023-02-06T12:35:59.055Z,101157.50
2023-02-06T12:38:50.709Z,101158.02
2023-02-06T12:41:41.049Z,101151.91
2023-02-06T12:44:43.640Z,101152.20
2023-02-06T12:47:31.441Z,101149.21
2023-02-06T12:50:09.866Z,101144.11
2023-02-06T12:52:46.996Z,101141.97
2023-02-06T12:55:18.558Z,101144.17
2023-02-06T12:57:47.009Z,101142.28
2023-02-06T13:00:53.407Z,101143.52
2023-02-06T13:03:29.526Z,101140.63
2023-02-06T13:06:03.170Z,101141.08
2023-02-06T13:08:39.995Z,101145.64
2023-02-06T13:11:17.685Z,101146.80
2023-02-06T13:13:46.840Z,101141.09
2023-02-06T13:16:15.586Z,101140.35
2023-02-06T13:18:52.714Z,101139.36
2023-02-06T13:21:24.516Z,101140.73
2023-02-06T13:24:02.458Z,101144.50
2023-02-06T13:26:43.471Z,101146.40
2023-02-06T13:29:28.956Z,101148.52
2023-02-06T13:32:18.279Z,101144.85
2023-02-06T13:34:50.777Z,101147.71
2023-02-06T13:37:37.596Z,101147.60
2023-02-06T13:40:29.118Z,101147.71
2023-02-06T13:43:20.082Z,101150.16
2023-02-06T13:46:07.632Z,101152.13
2023-02-06T13:48:58.198Z,101153.04
2023-02-06T13:51:32.436Z,101157.49
2023-02-06T13:54:07.085Z,101159.56
2023-02-06T13:56:39.058Z,101159.23
2023-02-06T13:59:16.458Z,101162.06
2023-02-06T14:01:45.815Z,101161.61
2023-02-06T14:04:28.588Z,101159.56
2023-02-06T14:07:07.030Z,101161.89
2023-02-06T14:10:08.998Z,101163.02
2023-02-06T14:12:44.722Z,101166.88
2023-02-06T14:15:28.492Z,101169.20
2023-02-06T14:18:27.164Z,101168.67
2023-02-06T14:21:07.828Z,101168.67
2023-02-06T14:24:01.438Z,101168.62
2023-02-06T14:26:49.930Z,101171.45
2023-02-06T14:29:27.510Z,101175.84
2023-02-06T14:31:55.856Z,101176.35
2023-02-06T14:35:02.336Z,101182.86
2023-02-06T14:37:52.943Z,101183.39
2023-02-06T14:40:23.278Z,101194.05
2023-02-06T14:42:53.042Z,101193.30
2023-02-06T14:45:31.943Z,101196.30
2023-02-06T14:48:05.102Z,101197.34
2023-02-06T14:50:39.308Z,101198.83
2023-02-06T14:53:26.634Z,101204.34
2023-02-06T14:56:15.476Z,101213.15
2023-02-06T14:58:47.022Z,101212.05
2023-02-06T15:01:22.163Z,101210.88
2023-02-06T15:03:52.938Z,101213.33
2023-02-06T15:06:41.758Z,101209.39
2023-02-06T15:09:23.073Z,101207.58
2023-02-06T15:11:57.801Z,101213.02
2023-02-06T15:14:28.638Z,101213.13
2023-02-06T15:16:59.536Z,101218.09
2023-02-06T15:19:31.864Z,101221.23
2023-02-06T15:22:11.786Z,101221.20
2023-02-06T15:24:55.372Z,101225.31
2023-02-06T15:27:32.257Z,101229.31
2023-02-06T15:30:01.162Z,101232.65
2023-02-06T15:32:32.826Z,101231.87
2023-02-06T15:35:01.609Z,101235.52
2023-02-06T15:37:34.990Z,101237.84
2023-02-06T15:40:28.498Z,101245.08
2023-02-06T15:42:57.209Z,101251.94
2023-02-06T17:51:22.828Z,101265.41
2023-02-06T17:53:51.338Z,101260.24
2023-02-06T17:56:18.871Z,101254.33
2023-02-06T17:58:46.114Z,101249.27
2023-02-06T18:01:18.558Z,101245.70
2023-02-06T18:53:41.840Z,101278.70
2023-02-06T18:56:12.031Z,101272.91
2023-02-06T18:58:40.984Z,101267.73
2023-02-06T19:01:17.152Z,101264.96
2023-02-06T19:03:47.362Z,101262.34
2023-02-06T19:06:31.946Z,101261.15
2023-02-06T19:09:00.926Z,101256.55
2023-02-06T19:11:31.281Z,101261.65
2023-02-06T19:13:59.790Z,101267.92
2023-02-06T19:16:30.197Z,101261.13
2023-02-06T19:18:58.889Z,101262.68
2023-02-06T19:21:28.343Z,101266.71
2023-02-06T19:23:58.434Z,101261.77
2023-02-06T19:26:27.546Z,101262.02
2023-02-06T19:28:56.149Z,101264.84
2023-02-06T19:31:25.089Z,101264.66
2023-02-06T19:33:58.314Z,101265.62
2023-02-06T19:36:27.538Z,101265.30
2023-02-06T19:38:57.663Z,101265.30
2023-02-06T19:41:28.145Z,101262.45
2023-02-06T19:43:57.513Z,101260.23
2023-02-06T19:46:26.843Z,101262.79
2023-02-06T19:48:56.042Z,101263.40
2023-02-06T19:51:29.951Z,101262.19
2023-02-06T19:53:59.719Z,101260.04
2023-02-06T19:56:34.755Z,101262.65
2023-02-06T19:59:24.134Z,101264.73
2023-02-06T20:02:00.616Z,101264.80
2023-02-06T20:48:12.454Z,101253.29
2023-02-06T20:50:40.986Z,101253.97
2023-02-06T20:53:09.363Z,101253.13
2023-02-06T20:55:44.581Z,101251.46
2023-02-06T20:58:13.018Z,101249.90
2023-02-06T21:00:41.828Z,101247.66
2023-02-06T21:03:10.266Z,101249.05
2023-02-06T21:05:39.512Z,101247.86
2023-02-06T21:08:11.566Z,101249.64
2023-02-06T21:10:41.096Z,101245.02
2023-02-06T21:13:09.467Z,101245.19
2023-02-06T21:15:38.175Z,101245.34
2023-02-06T21:18:06.562Z,101247.59
2023-02-06T21:20:35.869Z,101251.19
2023-02-06T21:23:04.836Z,101254.31
2023-02-06T21:25:33.142Z,101249.84
2023-02-06T21:28:01.784Z,101252.52
2023-02-06T21:30:30.809Z,101251.58
2023-02-06T21:32:59.161Z,101250.17
2023-02-06T21:35:30.537Z,101243.60
2023-02-06T21:37:58.943Z,101247.12
2023-02-06T21:40:27.222Z,101242.96
2023-02-06T21:42:55.485Z,101240.84
2023-02-06T21:45:23.803Z,101235.61
2023-02-06T21:47:52.649Z,101234.14
2023-02-06T21:50:21.143Z,101233.98
2023-02-06T21:52:49.385Z,101228.11
2023-02-06T21:55:18.070Z,101228.77
2023-02-06T21:57:46.298Z,101224.70
2023-02-06T22:00:15.273Z,101226.91
2023-02-06T22:02:43.565Z,101220.14
2023-02-06T22:05:11.852Z,101219.27
2023-02-06T22:07:40.722Z,101212.90
2023-02-06T22:10:15.166Z,101212.45
2023-02-06T22:12:48.925Z,101213.46
2023-02-06T22:15:17.458Z,101205.66
2023-02-06T22:17:45.739Z,101206.09
2023-02-06T22:20:16.331Z,101206.09
2023-02-06T22:22:44.883Z,101211.17
2023-02-06T22:25:13.209Z,101209.77
2023-02-06T22:27:42.219Z,101202.64
2023-02-06T22:30:11.506Z,101201.34
2023-02-06T22:32:41.937Z,101198.83
2023-02-06T22:35:10.726Z,101197.20
2023-02-06T22:37:39.103Z,101189.11
2023-02-06T22:40:08.014Z,101191.05
2023-02-06T22:42:37.734Z,101187.62
2023-02-06T22:45:06.834Z,101187.45
2023-02-06T22:47:35.569Z,101182.82
2023-02-06T22:50:03.975Z,101185.90
2023-02-06T22:52:52.535Z,101183.35
2023-02-06T22:55:20.837Z,101186.37
2023-02-06T22:57:49.857Z,101181.14
2023-02-06T23:00:18.706Z,101185.27
2023-02-06T23:02:47.762Z,101183.11
2023-02-06T23:05:16.083Z,101187.83
2023-02-06T23:07:44.768Z,101191.83
2023-02-06T23:10:13.200Z,101193.36
2023-02-06T23:12:41.530Z,101190.75
2023-02-06T23:15:10.657Z,101188.24
2023-02-06T23:17:39.027Z,101190.16
2023-02-06T23:20:07.863Z,101193.32
2023-02-06T23:22:36.704Z,101193.63
2023-02-06T23:25:05.586Z,101193.05
2023-02-06T23:27:34.480Z,60713.91
2023-02-06T23:30:03.053Z,-1.00
2023-02-06T23:32:31.495Z,-1.00
2023-02-06T23:35:00.209Z,-1.00
2023-02-06T23:37:28.895Z,-1.00
2023-02-06T23:39:57.328Z,-1.00
2023-02-06T23:42:25.530Z,-1.00
2023-02-06T23:44:55.060Z,-1.00
2023-02-06T23:47:23.516Z,-1.00
2023-02-06T23:49:51.926Z,-1.00
2023-02-06T23:52:20.098Z,-1.00
2023-02-06T23:54:48.379Z,-1.00
2023-02-06T23:57:16.705Z,-1.00
2023-02-06T23:59:45.528Z,-1.00
